Time;durP1;ratioP1;P1;durP2;ratioP2;P2;SDS_P1;SDS_P2;PMS_P1;PMS_P2;Temp;Humidity;BMP_temperature;BMP_pressure;BME280_temperature;BME280_humidity;BME280_pressure;Samples;Min_cycle;Max_cycle;Signal;HPM_P1;HPM_P2
2022/07/15 00:00:29;;;;;;;8.25;1.83;;;;;;;24.32;60.37;100303.09;2095111;28;20068;-73
2022/07/15 00:01:50;;;;;;;4.57;1.63;;;;;;;24.31;60.51;100291.44;2100863;28;20142;-74
2022/07/15 00:03:13;;;;;;;9.57;2.13;;;;;;;24.32;60.55;100298.59;2103508;28;20638;-74
2022/07/15 00:04:35;;;;;;;8.43;1.90;;;;;;;24.35;60.48;100295.72;2105758;28;20111;-74
2022/07/15 00:05:57;;;;;;;;;;;;;;;24.33;60.37;100300.34;2106416;28;20139;-73
2022/07/15 00:07:20;;;;;;;8.73;2.20;;;;;;;24.33;60.61;100296.78;2103540;28;20387;-73
2022/07/15 00:08:43;;;;;;;11.18;2.20;;;;;;;24.34;60.39;100290.44;2103455;28;20059;-74
2022/07/15 00:10:15;;;;;;;10.45;2.30;;;;;;;24.33;60.38;100299.47;2095195;28;20047;-73
2022/07/15 00:11:37;;;;;;;17.15;3.60;;;;;;;24.32;60.32;100287.78;2103691;28;20147;-74
2022/07/15 00:13:00;;;;;;;7.90;1.90;;;;;;;24.34;60.03;100302.09;2102965;28;20075;-74
2022/07/15 00:14:23;;;;;;;11.23;2.03;;;;;;;24.32;59.96;100293.19;2103484;28;20048;-74
2022/07/15 00:15:44;;;;;;;9.18;2.42;;;;;;;24.33;60.22;100288.66;2103545;28;20080;-74
2022/07/15 00:17:08;;;;;;;10.23;2.05;;;;;;;24.35;60.03;100300.28;2103259;28;20040;-74
2022/07/15 00:18:30;;;;;;;10.73;2.10;;;;;;;24.35;60.21;100298.41;2103163;28;20480;-73
2022/07/15 00:19:52;;;;;;;9.65;1.90;;;;;;;24.34;60.29;100295.81;2103200;28;20582;-73
2022/07/15 00:21:14;;;;;;;8.52;2.17;;;;;;;24.34;60.24;100295.81;2105860;28;20078;-73
2022/07/15 00:22:36;;;;;;;5.28;1.50;;;;;;;24.34;60.58;100282.34;2103269;28;20056;-73
2022/07/15 00:24:00;;;;;;;6.40;1.77;;;;;;;24.37;60.25;100292.97;2113846;28;20119;-74
2022/07/15 00:25:22;;;;;;;8.38;1.60;;;;;;;24.39;60.25;100288.38;2105921;28;20044;-74
2022/07/15 00:26:45;;;;;;;9.48;1.92;;;;;;;24.39;60.31;100285.69;2108560;28;20508;-73
2022/07/15 00:28:09;;;;;;;9.60;2.33;;;;;;;24.41;60.19;100291.88;2103403;28;20051;-74
2022/07/15 00:29:31;;;;;;;6.80;1.85;;;;;;;24.39;59.98;100282.97;2109412;28;20577;-74
2022/07/15 00:30:53;;;;;;;5.20;2.00;;;;;;;24.37;60.16;100288.44;2105897;28;20051;-74
2022/07/15 00:32:16;;;;;;;9.30;3.22;;;;;;;24.37;60.14;100291.13;2100857;28;20387;-73
2022/07/15 00:33:38;;;;;;;12.70;2.10;;;;;;;24.36;60.15;100281.28;2100295;28;20148;-73
2022/07/15 00:34:59;;;;;;;6.90;1.67;;;;;;;24.36;60.20;100281.28;2108671;28;20130;-73
2022/07/15 00:36:22;;;;;;;10.70;1.83;;;;;;;24.35;60.30;100286.78;2111996;28;20121;-73
2022/07/15 00:37:43;;;;;;;9.80;1.98;;;;;;;24.35;60.05;100284.09;2111738;28;20059;-74
2022/07/15 00:39:07;;;;;;;15.07;2.40;;;;;;;24.36;59.97;100288.50;2105896;28;20507;-73
2022/07/15 00:40:29;;;;;;;8.80;2.17;;;;;;;24.36;60.06;100288.50;2108853;28;20134;-73
2022/07/15 00:41:51;;;;;;;12.40;1.95;;;;;;;24.34;60.25;100285.91;2103142;28;20044;-74
2022/07/15 00:43:13;;;;;;;21.55;2.53;;;;;;;24.33;60.30;100278.75;2111566;28;20082;-73
2022/07/15 00:44:36;;;;;;;5.30;1.33;;;;;;;24.34;60.05;100271.53;2103125;28;20080;-73
2022/07/15 00:45:57;;;;;;;16.90;2.53;;;;;;;24.37;60.06;100272.25;2109000;28;20075;-73
2022/07/15 00:47:20;;;;;;;11.30;2.00;;;;;;;24.38;60.04;100271.31;2111474;28;20201;-73
2022/07/15 00:48:42;;;;;;;5.78;1.63;;;;;;;24.39;60.12;100262.25;2111287;28;20048;-74
2022/07/15 00:50:04;;;;;;;11.35;2.13;;;;;;;24.41;60.14;100281.97;2105852;28;20544;-73
2022/07/15 00:51:27;;;;;;;9.52;2.08;;;;;;;24.42;60.07;100282.81;2108881;28;20061;-73
2022/07/15 00:52:53;;;;;;;10.52;2.10;;;;;;;24.43;60.15;100271.94;2111611;28;20047;-74
2022/07/15 00:54:18;;;;;;;14.25;3.17;;;;;;;24.46;60.22;100268.22;2111984;28;20433;-74
2022/07/15 00:55:42;;;;;;;11.60;2.00;;;;;;;24.47;60.26;100281.66;2103680;28;20047;-74
2022/07/15 00:57:06;;;;;;;11.55;1.95;;;;;;;24.47;60.18;100281.66;2109013;28;20039;-73
2022/07/15 00:58:30;;;;;;;6.80;2.15;;;;;;;24.47;60.25;100273.56;2111351;28;20480;-74
2022/07/15 00:59:53;;;;;;;12.43;2.05;;;;;;;24.45;60.40;100288.94;2105758;28;20052;-73
2022/07/15 01:01:21;;;;;;;11.93;2.65;;;;;;;24.46;60.62;100271.81;2109221;28;20138;-73
2022/07/15 01:02:49;;;;;;;10.13;2.20;;;;;;;24.45;60.84;100271.88;2103619;28;20113;-74
2022/07/15 01:04:14;;;;;;;6.45;2.08;;;;;;;24.46;60.81;100270.94;2110753;28;20062;-73
2022/07/15 01:05:38;;;;;;;10.20;1.95;;;;;;;24.43;60.92;100263.84;2105769;28;20051;-73
2022/07/15 01:06:59;;;;;;;8.75;1.85;;;;;;;24.43;60.92;100276.47;2111481;28;20040;-73
2022/07/15 01:08:22;;;;;;;8.05;1.83;;;;;;;24.43;60.93;100268.38;2111405;28;20054;-73
2022/07/15 01:09:47;;;;;;;9.75;2.10;;;;;;;24.41;60.93;100263.06;2114274;28;20497;-73
2022/07/15 01:11:10;;;;;;;6.38;1.80;;;;;;;24.41;61.08;100263.06;2111590;28;20131;-73
2022/07/15 01:12:32;;;;;;;9.48;2.00;;;;;;;24.43;61.00;100265.66;2103056;28;20145;-73
2022/07/15 01:13:55;;;;;;;9.98;2.35;;;;;;;24.44;60.68;100268.31;2100473;28;20044;-74
2022/07/15 01:15:18;;;;;;;8.85;1.50;;;;;;;24.44;60.87;100275.53;2100303;28;20051;-74
2022/07/15 01:16:40;;;;;;;14.80;2.10;;;;;;;24.43;60.82;100255.75;2109049;28;20043;-73
2022/07/15 01:18:03;;;;;;;5.32;1.75;;;;;;;24.44;60.81;100275.53;2111353;28;20138;-73
2022/07/15 01:19:26;;;;;;;12.30;2.15;;;;;;;24.44;60.84;100272.81;2103035;28;20054;-73
2022/07/15 01:20:50;;;;;;;16.83;2.55;;;;;;;24.45;60.92;100261.09;2100404;28;20048;-73
2022/07/15 01:22:12;;;;;;;10.18;2.53;;;;;;;24.42;61.18;100261.22;2100945;28;20513;-73
2022/07/15 01:23:36;;;;;;;11.48;2.22;;;;;;;24.41;61.24;100260.38;2099704;28;20109;-73
2022/07/15 01:25:06;;;;;;;9.23;2.67;;;;;;;24.40;61.15;100261.31;2104176;28;20042;-74
2022/07/15 01:26:29;;;;;;;13.13;2.20;;;;;;;24.40;61.37;100274.81;2100590;28;20051;-74
2022/07/15 01:27:52;;;;;;;8.02;1.60;;;;;;;24.40;61.33;100268.53;2100259;28;20113;-73
2022/07/15 01:29:20;;;;;;;11.45;1.75;;;;;;;24.40;61.42;100263.13;2101166;28;20454;-73
2022/07/15 01:30:42;;;;;;;9.77;2.35;;;;;;;24.40;61.66;100265.84;2103089;28;20451;-73
2022/07/15 01:32:08;;;;;;;10.68;2.33;;;;;;;24.40;61.61;100269.41;2103548;28;20401;-73
2022/07/15 01:33:31;;;;;;;14.57;2.47;;;;;;;24.39;61.63;100273.06;2100106;28;20052;-73
2022/07/15 01:34:53;;;;;;;9.35;1.77;;;;;;;24.38;61.76;100262.34;2100860;28;20040;-73
2022/07/15 01:36:18;;;;;;;11.90;2.53;;;;;;;24.38;61.52;100270.44;2100275;28;20055;-74
2022/07/15 01:37:46;;;;;;;13.02;1.88;;;;;;;24.37;61.54;100274.06;2102183;28;20056;-73
2022/07/15 01:39:09;;;;;;;11.80;3.30;;;;;;;24.36;61.76;100275.00;2100159;28;20142;-73
2022/07/15 01:40:31;;;;;;;10.00;2.72;;;;;;;24.36;61.44;100266.91;2100527;28;20060;-73
2022/07/15 01:41:54;;;;;;;11.98;1.95;;;;;;;24.34;61.57;100271.53;2100191;28;20040;-74
2022/07/15 01:43:15;;;;;;;9.65;2.00;;;;;;;24.35;61.41;100270.59;2102686;28;20044;-73
2022/07/15 01:44:38;;;;;;;;;;;;;;;24.32;61.33;100271.59;2100675;28;20063;-73
2022/07/15 01:46:02;;;;;;;7.47;1.77;;;;;;;24.31;61.31;100277.94;2100358;28;19920;-74
2022/07/15 01:47:28;;;;;;;15.00;2.20;;;;;;;24.30;61.30;100270.78;2103508;28;20051;-73
2022/07/15 01:50:51;;;;;;;13.82;2.60;;;;;;;24.32;61.66;100257.25;2088520;28;20045;-74
2022/07/15 01:52:17;;;;;;;29.52;3.40;;;;;;;24.35;61.79;100267.91;2092710;28;20094;-73
2022/07/15 01:53:41;;;;;;;13.40;2.13;;;;;;;24.34;62.03;100267.03;2088759;28;20044;-74
2022/07/15 01:55:05;;;;;;;10.50;2.50;;;;;;;24.35;61.78;100262.50;2083662;28;20044;-74
2022/07/15 01:56:27;;;;;;;11.27;2.40;;;;;;;24.35;61.90;100257.09;2092270;28;20481;-73
2022/07/15 01:57:49;;;;;;;7.45;1.85;;;;;;;24.35;61.91;100263.34;2088494;28;20592;-74
2022/07/15 01:59:11;;;;;;;8.95;1.85;;;;;;;24.34;61.90;100261.63;2091532;28;20055;-73
2022/07/15 02:00:33;;;;;;;10.75;2.10;;;;;;;24.34;61.71;100263.44;2085849;28;20053;-74
2022/07/15 02:01:57;;;;;;;10.00;2.85;;;;;;;24.35;61.74;100266.03;2091766;28;20040;-73
2022/07/15 02:03:19;;;;;;;10.10;2.00;;;;;;;24.35;61.46;100273.28;2094383;28;20079;-73
2022/07/15 02:04:42;;;;;;;14.70;2.25;;;;;;;24.34;61.63;100271.53;2094170;28;20462;-74
2022/07/15 02:06:04;;;;;;;15.50;2.40;;;;;;;24.33;61.86;100273.38;2094421;28;20044;-73
2022/07/15 02:07:28;;;;;;;10.35;1.75;;;;;;;24.34;61.54;100261.63;2085703;28;20076;-73
2022/07/15 02:08:49;;;;;;;11.77;2.40;;;;;;;24.35;61.66;100276.84;2083867;28;20049;-74
2022/07/15 02:10:14;;;;;;;11.88;1.85;;;;;;;24.36;61.57;100277.72;2092289;28;20094;-74
2022/07/15 02:11:42;;;;;;;9.23;1.83;;;;;;;24.35;61.86;100278.69;2088138;28;20059;-73
2022/07/15 02:13:03;;;;;;;11.00;2.53;;;;;;;24.33;61.75;100273.38;2091720;28;20090;-74
2022/07/15 02:14:26;;;;;;;13.40;2.17;;;;;;;24.32;62.07;100277.00;2086086;28;20535;-74
2022/07/15 02:15:52;;;;;;;8.15;1.98;;;;;;;24.33;62.05;100273.38;2084572;28;20037;-73
2022/07/15 02:17:15;;;;;;;7.93;1.88;;;;;;;24.32;61.91;100268.91;2091412;28;20056;-74
2022/07/15 02:18:38;;;;;;;9.70;2.22;;;;;;;24.30;61.61;100276.19;2085864;28;20554;-74
2022/07/15 02:20:02;;;;;;;18.60;2.90;;;;;;;24.31;61.35;100269.84;2083393;28;20584;-73
2022/07/15 02:21:26;;;;;;;10.32;2.28;;;;;;;24.30;61.28;100265.41;2091789;28;20077;-73
2022/07/15 02:22:48;;;;;;;8.90;2.00;;;;;;;24.30;61.43;100273.50;2094333;28;20089;-74
2022/07/15 02:24:11;;;;;;;10.43;2.30;;;;;;;24.29;61.22;100274.44;2094150;28;20502;-74
2022/07/15 02:25:35;;;;;;;8.05;1.67;;;;;;;24.28;61.51;100270.03;2094032;28;20549;-73
2022/07/15 02:26:56;;;;;;;7.32;1.75;;;;;;;24.29;61.84;100271.75;2086260;28;20412;-74
2022/07/15 02:28:19;;;;;;;10.90;2.03;;;;;;;24.30;62.00;100275.31;2091081;28;20391;-73
2022/07/15 02:29:40;;;;;;;17.50;2.22;;;;;;;24.29;62.10;100276.25;2085776;28;20144;-73
2022/07/15 02:31:05;;;;;;;13.23;2.67;;;;;;;24.29;62.13;100274.44;2091722;28;20139;-74
2022/07/15 02:32:30;;;;;;;22.50;3.30;;;;;;;24.29;62.50;100274.44;2102875;28;20406;-73
2022/07/15 02:33:54;;;;;;;10.00;1.90;;;;;;;24.28;62.45;100286.22;2088512;28;20072;-73
2022/07/15 02:35:17;;;;;;;11.52;2.58;;;;;;;24.30;62.50;100280.72;2091456;28;20052;-73
2022/07/15 02:36:40;;;;;;;15.57;4.05;;;;;;;24.28;62.62;100291.59;2085876;28;20477;-74
2022/07/15 02:38:03;;;;;;;10.20;2.28;;;;;;;24.28;62.68;100288.91;2099696;28;20062;-73
2022/07/15 02:39:27;;;;;;;9.63;1.90;;;;;;;24.27;62.67;100291.66;2088460;28;20049;-73
2022/07/15 02:40:51;;;;;;;10.38;2.17;;;;;;;24.26;62.92;100288.09;2094421;28;20044;-74
2022/07/15 02:42:14;;;;;;;9.85;1.65;;;;;;;24.25;63.12;100282.75;2085862;28;20155;-74
2022/07/15 02:43:36;;;;;;;12.27;2.10;;;;;;;24.23;63.05;100291.81;2083231;28;20600;-73
2022/07/15 02:45:00;;;;;;;13.27;2.10;;;;;;;24.23;62.92;100297.19;2083511;28;20100;-74
2022/07/15 02:46:23;;;;;;;7.05;1.70;;;;;;;24.23;62.76;100296.31;2083547;28;20037;-73
2022/07/15 02:47:46;;;;;;;14.55;2.10;;;;;;;24.21;62.40;100288.31;2091607;28;20117;-73
2022/07/15 02:49:11;;;;;;;11.35;1.90;;;;;;;24.21;62.20;100296.41;2088318;28;20191;-74
2022/07/15 02:50:33;;;;;;;22.00;4.75;;;;;;;24.20;62.39;100283.88;2091836;28;20502;-74
2022/07/15 02:51:56;;;;;;;15.27;1.95;;;;;;;24.21;62.40;100290.16;2085694;28;20147;-74
2022/07/15 02:53:25;;;;;;;12.27;1.90;;;;;;;24.22;62.29;100292.75;2091870;28;20140;-73
2022/07/15 02:54:48;;;;;;;10.50;1.90;;;;;;;24.20;62.31;100294.66;2086304;28;20594;-73
2022/07/15 02:56:12;;;;;;;11.50;2.05;;;;;;;24.20;62.40;100300.06;2085782;28;20045;-73
2022/07/15 02:57:33;;;;;;;14.25;2.70;;;;;;;24.19;62.45;100301.00;2083027;28;20041;-74
2022/07/15 02:58:56;;;;;;;11.13;1.70;;;;;;;24.19;62.51;100295.63;2085705;28;20136;-73
2022/07/15 03:00:17;;;;;;;11.45;2.00;;;;;;;24.19;62.79;100297.44;2085715;28;20061;-74
2022/07/15 03:01:40;;;;;;;13.13;2.17;;;;;;;24.20;62.63;100294.66;2085651;28;20060;-74
2022/07/15 03:03:02;;;;;;;9.50;2.45;;;;;;;24.22;62.77;100305.34;2085832;28;20136;-74
2022/07/15 03:04:25;;;;;;;12.80;2.10;;;;;;;24.21;62.79;100298.25;2085689;28;20088;-74
2022/07/15 03:05:49;;;;;;;7.60;2.05;;;;;;;24.23;63.06;100304.41;2085812;28;20052;-74
2022/07/15 03:07:12;;;;;;;8.88;2.08;;;;;;;24.24;63.08;100306.16;2085788;28;20173;-74
2022/07/15 03:08:36;;;;;;;9.25;2.13;;;;;;;24.25;63.05;100309.75;2082512;28;20556;-74
2022/07/15 03:09:58;;;;;;;10.43;2.00;;;;;;;24.23;62.74;100307.13;2083321;28;20094;-73
2022/07/15 03:11:21;;;;;;;10.45;2.45;;;;;;;24.21;62.19;100299.13;2091035;28;20127;-74
2022/07/15 03:12:45;;;;;;;7.43;2.38;;;;;;;24.20;62.20;100308.16;2094076;28;20115;-74
2022/07/15 03:14:09;;;;;;;12.75;3.08;;;;;;;24.21;61.88;100315.31;2085406;28;20044;-74
2022/07/15 03:15:31;;;;;;;10.38;2.05;;;;;;;24.22;61.94;100321.53;2083185;28;20057;-74
2022/07/15 03:16:53;;;;;;;16.65;2.10;;;;;;;24.22;61.97;100318.84;2082774;28;20087;-73
2022/07/15 03:18:15;;;;;;;12.25;2.38;;;;;;;24.22;61.79;100314.31;2091047;28;20036;-73
2022/07/15 03:19:37;;;;;;;9.40;1.90;;;;;;;24.22;61.60;100318.84;2093912;28;20048;-73
2022/07/15 03:21:00;;;;;;;12.35;2.60;;;;;;;24.23;61.67;100318.78;2085254;28;20045;-74
2022/07/15 03:22:22;;;;;;;13.75;2.33;;;;;;;24.23;61.67;100313.38;2082519;28;20075;-74
2022/07/15 03:23:46;;;;;;;12.75;1.90;;;;;;;24.23;61.99;100321.47;2088533;28;20455;-74
2022/07/15 03:25:08;;;;;;;10.77;2.70;;;;;;;24.25;62.01;100323.22;2093775;28;20069;-73
2022/07/15 03:26:32;;;;;;;13.30;2.67;;;;;;;24.25;62.16;100326.81;2085348;28;20049;-74
2022/07/15 03:27:55;;;;;;;9.27;2.05;;;;;;;24.25;62.39;100323.22;2085672;28;20433;-74
2022/07/15 03:29:16;;;;;;;7.72;1.65;;;;;;;24.26;62.18;100314.19;2082583;28;20609;-73
2022/07/15 03:30:39;;;;;;;;;;;;;;;24.26;62.13;100320.47;2091634;28;20098;-74
2022/07/15 03:32:02;;;;;;;9.93;2.40;;;;;;;24.27;62.03;100330.31;2094021;28;19920;-74
2022/07/15 03:33:25;;;;;;;12.00;2.30;;;;;;;24.30;61.29;100324.75;2101940;28;20043;-74
2022/07/15 03:34:48;;;;;;;12.65;2.10;;;;;;;24.32;61.00;100333.66;2088100;28;20084;-74
2022/07/15 03:36:13;;;;;;;8.52;1.70;;;;;;;24.36;60.98;100324.47;2091483;28;20079;-73
2022/07/15 03:37:35;;;;;;;13.52;2.20;;;;;;;24.40;60.68;100334.19;2093555;28;20052;-74
2022/07/15 03:38:59;;;;;;;16.27;2.45;;;;;;;24.44;60.56;100338.47;2088119;28;20183;-73
2022/07/15 03:40:22;;;;;;;12.70;2.70;;;;;;;24.48;60.64;100340.06;2093800;28;20488;-73
2022/07/15 03:41:44;;;;;;;10.52;3.45;;;;;;;24.53;60.35;100335.34;2088042;28;20052;-74
2022/07/15 03:43:07;;;;;;;11.80;2.47;;;;;;;24.58;60.18;100330.59;2085218;28;20096;-74
2022/07/15 03:44:29;;;;;;;15.05;2.60;;;;;;;24.62;59.78;100329.47;2085589;28;20049;-74
2022/07/15 03:45:52;;;;;;;11.50;1.90;;;;;;;24.67;59.96;100329.25;2087950;28;20084;-73
2022/07/15 03:47:15;;;;;;;9.93;2.28;;;;;;;24.75;59.86;100328.84;2088117;28;20078;-74
2022/07/15 03:48:38;;;;;;;9.55;1.80;;;;;;;24.81;59.62;100315.06;2095916;28;20580;-74
2022/07/15 03:49:59;;;;;;;11.13;2.00;;;;;;;24.89;59.83;100320.94;2101784;28;20056;-74
2022/07/15 03:51:24;;;;;;;11.60;2.47;;;;;;;24.95;59.78;100317.97;2101915;28;20448;-73
2022/07/15 03:52:45;;;;;;;13.68;2.53;;;;;;;25.03;59.75;100326.56;2093933;28;20052;-74
2022/07/15 03:54:10;;;;;;;9.07;1.95;;;;;;;25.13;59.47;100325.16;2093617;28;20510;-74
2022/07/15 03:55:31;;;;;;;5.55;1.95;;;;;;;25.21;59.35;100322.91;2099870;28;20068;-74
2022/07/15 03:56:54;;;;;;;13.00;1.95;;;;;;;25.30;59.20;100333.25;2093379;28;20127;-74
2022/07/15 03:58:17;;;;;;;10.40;1.70;;;;;;;25.39;59.13;100327.38;2099403;28;20398;-74
2022/07/15 03:59:38;;;;;;;10.70;2.53;;;;;;;25.49;59.40;100329.56;2093718;28;20524;-74
2022/07/15 04:01:01;;;;;;;10.30;2.45;;;;;;;25.56;59.07;100328.31;2099099;28;20393;-74
2022/07/15 04:02:22;;;;;;;11.70;2.08;;;;;;;25.64;59.15;100337.78;2101905;28;20592;-74
2022/07/15 04:03:45;;;;;;;11.52;1.60;;;;;;;25.69;59.11;100333.00;2101971;28;20040;-74
2022/07/15 04:05:09;;;;;;;7.20;1.52;;;;;;;25.80;58.76;100333.28;2093652;28;20098;-74
2022/07/15 04:06:30;;;;;;;8.50;2.00;;;;;;;25.88;58.61;100332.00;2099642;28;20048;-74
2022/07/15 04:07:55;;;;;;;9.43;1.63;;;;;;;25.96;58.78;100336.06;2093689;28;20091;-74
2022/07/15 04:09:18;;;;;;;9.45;1.65;;;;;;;26.07;58.42;100330.91;2099399;28;20139;-74
2022/07/15 04:10:41;;;;;;;13.13;1.80;;;;;;;26.18;58.58;100338.47;2093478;28;20080;-74
2022/07/15 04:12:04;;;;;;;6.57;1.77;;;;;;;26.27;58.04;100326.25;2091126;28;20040;-74
2022/07/15 04:13:29;;;;;;;9.07;1.50;;;;;;;26.35;58.00;100332.13;2092193;28;20048;-74
2022/07/15 04:14:52;;;;;;;7.50;1.42;;;;;;;26.45;57.54;100346.91;2098119;28;20063;-74
2022/07/15 04:16:15;;;;;;;11.07;1.90;;;;;;;26.56;57.38;100339.91;2093523;28;20087;-74
2022/07/15 04:17:37;;;;;;;9.18;1.63;;;;;;;26.67;56.78;100341.09;2093485;28;20075;-74
2022/07/15 04:18:59;;;;;;;9.63;1.60;;;;;;;26.80;56.57;100348.44;2085255;28;20041;-74
2022/07/15 04:20:22;;;;;;;13.55;1.90;;;;;;;26.94;56.13;100356.69;2091087;28;20498;-74
2022/07/15 04:21:49;;;;;;;8.43;1.40;;;;;;;27.08;55.50;100349.56;2090478;28;20056;-74
2022/07/15 04:23:11;;;;;;;10.88;2.58;;;;;;;27.19;55.15;100352.50;2100398;28;20032;-74
2022/07/15 04:24:35;;;;;;;11.48;1.88;;;;;;;27.31;54.57;100352.66;2097562;28;20048;-74
2022/07/15 04:25:57;;;;;;;13.35;1.77;;;;;;;27.43;54.13;100361.03;2095003;28;20123;-74
2022/07/15 04:27:20;;;;;;;10.68;1.88;;;;;;;27.53;53.78;100352.25;2091869;28;20113;-74
2022/07/15 04:28:43;;;;;;;7.35;1.42;;;;;;;27.67;53.44;100357.72;2100473;28;20159;-74
2022/07/15 04:30:07;;;;;;;5.70;1.33;;;;;;;27.80;52.86;100346.97;2097295;28;20437;-74
2022/07/15 04:31:37;;;;;;;6.10;1.70;;;;;;;27.88;52.35;100349.22;2103315;28;20066;-74
2022/07/15 04:33:07;;;;;;;8.57;1.58;;;;;;;28.04;52.17;100352.69;2095673;28;20525;-74
2022/07/15 04:34:33;;;;;;;7.22;1.33;;;;;;;28.21;51.57;100362.53;2093212;28;20048;-74
2022/07/15 04:35:55;;;;;;;13.27;1.77;;;;;;;28.36;51.18;100350.66;2100681;28;20039;-74
2022/07/15 04:37:17;;;;;;;12.60;2.33;;;;;;;28.46;50.82;100330.09;2103120;28;20071;-74
2022/07/15 04:38:44;;;;;;;7.85;1.40;;;;;;;28.56;50.64;100355.69;2095566;28;20102;-74
2022/07/15 04:40:11;;;;;;;9.57;1.30;;;;;;;28.71;50.47;100356.53;2092397;28;20149;-74
2022/07/15 04:41:37;;;;;;;6.68;1.55;;;;;;;28.87;50.07;100360.88;2104138;28;20051;-74
2022/07/15 04:42:59;;;;;;;9.57;1.80;;;;;;;29.01;49.83;100361.81;2094245;28;20494;-74
2022/07/15 04:44:22;;;;;;;8.00;1.50;;;;;;;29.12;49.71;100361.94;2094661;28;20052;-74
2022/07/15 04:45:44;;;;;;;6.82;1.33;;;;;;;29.22;49.34;100349.47;2092497;28;20079;-75
2022/07/15 04:47:10;;;;;;;11.45;1.50;;;;;;;29.30;49.24;100350.69;2092961;28;20056;-74
2022/07/15 04:51:57;;;;;;;11.88;1.83;;;;;;;29.87;47.79;100369.41;2114119;28;20032;-74
2022/07/15 04:53:19;;;;;;;8.63;1.73;;;;;;;29.97;47.70;100369.66;2101963;28;20110;-74
2022/07/15 04:54:44;;;;;;;8.38;1.98;;;;;;;30.08;47.28;100367.03;2103316;28;20090;-75
2022/07/15 04:56:10;;;;;;;9.27;1.75;;;;;;;30.13;47.17;100366.72;2094989;28;20492;-75
2022/07/15 04:57:32;;;;;;;9.82;1.83;;;;;;;30.20;46.74;100370.72;2101126;28;20044;-75
2022/07/15 04:58:58;;;;;;;7.60;1.65;;;;;;;30.34;46.57;100362.44;2097099;28;20042;-74
2022/07/15 05:00:21;;;;;;;10.55;2.10;;;;;;;30.48;46.34;100365.88;2103126;28;20048;-74
2022/07/15 05:01:43;;;;;;;13.55;2.40;;;;;;;30.60;46.13;100374.16;2094514;28;20052;-75
2022/07/15 05:03:08;;;;;;;12.02;1.63;;;;;;;30.77;45.44;100379.25;2091882;28;20071;-74
2022/07/15 05:04:30;;;;;;;14.18;2.00;;;;;;;30.99;45.52;100375.78;2092124;28;20052;-74
2022/07/15 05:05:52;;;;;;;11.63;1.75;;;;;;;31.17;45.16;100369.84;2092127;28;20040;-74
2022/07/15 05:07:21;;;;;;;8.18;1.45;;;;;;;31.31;44.77;100374.22;2101627;28;20052;-74
2022/07/15 05:08:43;;;;;;;7.93;1.60;;;;;;;31.53;44.44;100374.31;2103264;28;20068;-75
2022/07/15 05:10:07;;;;;;;11.57;1.67;;;;;;;31.80;43.85;100384.97;2094760;28;20486;-74
2022/07/15 05:11:32;;;;;;;7.20;1.80;;;;;;;32.05;43.09;100382.03;2092597;28;20075;-74
2022/07/15 05:12:53;;;;;;;9.63;2.00;;;;;;;32.04;42.25;100390.34;2092031;28;20040;-74
2022/07/15 05:14:16;;;;;;;12.85;1.90;;;;;;;32.06;42.11;100391.09;2091475;28;20037;-74
2022/07/15 05:15:37;;;;;;;9.05;1.52;;;;;;;32.30;41.64;100385.56;2091828;28;20055;-74
2022/07/15 05:17:10;;;;;;;6.90;1.33;;;;;;;32.37;41.07;100386.78;2102753;28;20501;-75
2022/07/15 05:18:34;;;;;;;13.02;1.80;;;;;;;32.43;40.72;100383.56;2094782;28;20281;-74
2022/07/15 05:19:56;;;;;;;9.98;2.63;;;;;;;32.64;40.30;100381.81;2100540;28;20421;-75
2022/07/15 05:21:20;;;;;;;11.05;1.92;;;;;;;32.94;39.67;100377.56;2094160;28;20048;-74
2022/07/15 05:22:41;;;;;;;7.72;1.83;;;;;;;33.17;39.00;100388.31;2091399;28;20041;-75
2022/07/15 05:24:04;;;;;;;8.95;1.80;;;;;;;33.36;38.69;100384.03;2099639;28;20039;-75
2022/07/15 05:25:29;;;;;;;9.90;1.65;;;;;;;33.60;38.01;100391.03;2094571;28;20052;-75
2022/07/15 05:26:52;;;;;;;7.97;1.30;;;;;;;33.83;37.69;100388.19;2100609;28;20094;-75
2022/07/15 05:28:14;;;;;;;6.78;1.48;;;;;;;33.98;37.21;100389.59;2102203;28;20048;-74
2022/07/15 05:29:37;;;;;;;9.75;1.70;;;;;;;34.07;36.84;100380.53;2094464;28;20067;-73
2022/07/15 05:31:01;;;;;;;10.80;1.63;;;;;;;34.07;36.56;100386.00;2094635;28;20140;-74
2022/07/15 05:32:24;;;;;;;8.52;1.70;;;;;;;33.86;37.04;100383.31;2092133;28;20098;-73
2022/07/15 05:33:47;;;;;;;6.43;1.52;;;;;;;33.81;37.17;100393.78;2091713;28;20053;-74
2022/07/15 05:35:09;;;;;;;11.25;1.92;;;;;;;33.75;37.13;100383.38;2102635;28;20406;-75
2022/07/15 05:36:31;;;;;;;10.25;1.70;;;;;;;33.70;37.30;100384.75;2104057;28;20055;-73
2022/07/15 05:37:54;;;;;;;9.27;1.42;;;;;;;33.86;37.30;100394.28;2093740;28;20079;-74
2022/07/15 05:39:22;;;;;;;8.95;2.30;;;;;;;34.03;36.72;100386.44;2092167;28;20055;-73
2022/07/15 05:40:44;;;;;;;8.27;1.83;;;;;;;34.13;36.74;100393.72;2090551;28;20112;-74
2022/07/15 05:42:08;;;;;;;6.93;1.52;;;;;;;34.39;36.56;100400.53;2090615;28;20052;-74
2022/07/15 05:43:31;;;;;;;8.18;1.70;;;;;;;34.55;36.01;100399.13;2091368;28;20060;-74
2022/07/15 05:44:54;;;;;;;8.85;1.63;;;;;;;34.47;36.10;100399.81;2090911;28;20075;-74
2022/07/15 05:46:16;;;;;;;9.02;1.80;;;;;;;34.31;36.47;100397.59;2091635;28;20738;-75
2022/07/15 05:47:50;;;;;;;9.45;1.42;;;;;;;34.11;36.43;100403.06;2093970;28;20079;-73
2022/07/15 05:49:15;;;;;;;9.38;1.38;;;;;;;34.11;36.38;100390.22;2101112;28;20578;-74
2022/07/15 05:50:38;;;;;;;11.05;1.75;;;;;;;33.95;36.17;100403.53;2108459;28;20047;-74
2022/07/15 05:52:02;;;;;;;9.05;1.70;;;;;;;33.66;36.32;100403.31;2103144;28;20047;-74
2022/07/15 05:53:24;;;;;;;8.57;1.70;;;;;;;33.55;36.47;100398.75;2099538;28;20139;-73
2022/07/15 05:54:47;;;;;;;10.55;1.20;;;;;;;33.54;36.60;100398.91;2102505;28;20548;-75
2022/07/15 05:56:10;;;;;;;5.15;1.40;;;;;;;33.43;36.81;100399.81;2099690;28;20069;-74
2022/07/15 05:57:34;;;;;;;11.25;1.83;;;;;;;33.44;37.07;100400.69;2099796;28;20507;-74
2022/07/15 05:58:57;;;;;;;10.32;2.03;;;;;;;33.53;36.96;100397.16;2102885;28;20567;-73
2022/07/15 06:00:24;;;;;;;7.55;1.35;;;;;;;33.60;37.07;100406.59;2103320;28;20441;-75
2022/07/15 06:01:46;;;;;;;7.78;1.83;;;;;;;33.67;37.17;100399.59;2102404;28;20052;-74
2022/07/15 06:03:09;;;;;;;7.85;1.67;;;;;;;33.71;37.49;100398.34;2101709;28;20093;-74
2022/07/15 06:04:35;;;;;;;12.82;2.22;;;;;;;33.69;37.70;100393.94;2103412;28;20088;-75
2022/07/15 06:05:58;;;;;;;8.57;1.90;;;;;;;33.68;37.91;100398.56;2099781;28;20062;-74
2022/07/15 06:07:21;;;;;;;17.27;3.50;;;;;;;33.78;37.82;100394.06;2092278;28;20058;-74
2022/07/15 06:08:45;;;;;;;9.32;1.45;;;;;;;33.90;37.96;100395.72;2099215;28;20036;-74
2022/07/15 06:10:09;;;;;;;9.00;1.50;;;;;;;34.05;37.58;100396.25;2092597;28;20040;-74
2022/07/15 06:11:32;;;;;;;6.85;1.60;;;;;;;34.31;37.60;100404.94;2093946;28;20156;-74
2022/07/15 06:12:57;;;;;;;5.03;1.33;;;;;;;34.52;37.21;100404.91;2099181;28;20060;-74
2022/07/15 06:14:19;;;;;;;8.48;1.70;;;;;;;34.68;36.58;100416.19;2093568;28;20048;-74
2022/07/15 06:15:41;;;;;;;5.38;1.58;;;;;;;34.72;36.18;100407.56;2096307;28;20044;-74
2022/07/15 06:17:08;;;;;;;6.65;1.45;;;;;;;34.71;35.72;100405.88;2092082;28;20134;-74
2022/07/15 06:18:30;;;;;;;6.60;1.42;;;;;;;34.81;35.64;100402.25;2098999;28;20051;-74
2022/07/15 06:19:53;;;;;;;12.10;1.92;;;;;;;34.85;34.98;100401.88;2102305;28;20142;-74
2022/07/15 06:21:15;;;;;;;13.07;2.00;;;;;;;34.88;35.20;100407.06;2093807;28;20101;-74
2022/07/15 06:22:40;;;;;;;9.80;1.63;;;;;;;34.98;34.97;100412.59;2093647;28;20059;-75
2022/07/15 06:24:03;;;;;;;9.32;1.77;;;;;;;35.09;34.98;100412.44;2099523;28;20759;-75
2022/07/15 06:25:25;;;;;;;10.65;1.75;;;;;;;35.11;34.55;100418.69;2096555;28;20068;-75
2022/07/15 06:26:49;;;;;;;4.97;1.30;;;;;;;35.06;34.61;100424.56;2085853;28;20045;-74
2022/07/15 06:28:13;;;;;;;8.95;1.60;;;;;;;35.01;34.49;100415.91;2085684;28;20107;-74
2022/07/15 06:29:36;;;;;;;9.20;2.00;;;;;;;35.03;34.90;100424.88;2091418;28;20060;-74
2022/07/15 06:30:59;;;;;;;9.70;2.00;;;;;;;35.21;34.81;100418.72;2085769;28;20041;-75